Merck Upper Gwynedd (PN44)
North Wales, PA
Field Elevation: 355
Lat: 40°12.97N  Long: 75°16.80W
   
    
Weather Advisories
2017-05-25   08:40 Z
Altimeter 29.66" Hg
Wind 090° @ 8 KT
Gusts 17 KT
Visibility 9 SM
Ceiling OVC007
Temperature 13° C (55° F)
Dewpoint 13° C (55° F)
Relative Humidity 100%
Density Altitude --
Condensation Altitude --
Wind and Runways
Indicated Runway = 09
Headwind = 8 kt
Crosswind = 0 kt
History
 
 
 
More Info
All DigiWx sites map
NOAA Forecast
 
Airport IQ 5010
(8PS5) Hershey Medical
(8NJ1) Whitehouse
 
about DigiWx
 
FAA Disclaimer: The data displayed is for advisory purposes only and is not to be used for flight planning or operations. For official data, please call (not available) to hear the current automated AWOS voice message.
  METAR pn44 250840Z AUTO 09008G17KT VIS 9 SM OVC007 13/13 A2966